createdAt,value
2023-04-02T00:01:27.891Z,1.35
2023-04-02T00:04:10.115Z,1.10
2023-04-02T00:06:45.046Z,1.20
2023-04-02T00:09:37.014Z,1.00
2023-04-02T00:12:17.887Z,1.10
2023-04-02T00:14:53.639Z,1.33
2023-04-02T00:17:24.679Z,1.00
2023-04-02T00:19:57.091Z,1.17
2023-04-02T00:22:31.615Z,1.20
2023-04-02T00:25:02.801Z,0.77
2023-04-02T00:27:33.445Z,1.05
2023-04-02T00:30:02.196Z,0.95
2023-04-02T00:32:33.485Z,1.00
2023-04-02T00:35:02.347Z,1.20
2023-04-02T00:37:39.144Z,1.02
2023-04-02T00:40:15.380Z,0.93
2023-04-02T00:42:46.471Z,0.80
2023-04-02T00:45:23.044Z,0.82
2023-04-02T00:47:51.918Z,1.08
2023-04-02T00:50:29.004Z,0.95
2023-04-02T00:52:59.911Z,0.98
2023-04-02T00:55:36.041Z,0.80
2023-04-02T00:58:06.449Z,0.85
2023-04-02T01:00:37.611Z,0.95
2023-04-02T01:03:39.283Z,1.08
2023-04-02T01:06:11.557Z,1.42
2023-04-02T01:08:54.011Z,1.23
2023-04-02T01:11:43.108Z,1.58
2023-04-02T01:14:36.704Z,1.23
2023-04-02T01:17:15.472Z,1.20
2023-04-02T01:20:08.532Z,1.40
2023-04-02T01:22:47.915Z,1.23
2023-04-02T01:25:21.438Z,1.45
2023-04-02T01:27:53.028Z,1.35
2023-04-02T01:30:23.102Z,1.40
2023-04-02T01:32:51.489Z,1.58
2023-04-02T01:35:19.855Z,1.17
2023-04-02T01:37:53.075Z,1.30
2023-04-02T01:40:37.398Z,1.20
2023-04-02T01:43:17.126Z,1.40
2023-04-02T01:45:46.672Z,1.20
2023-04-02T01:48:17.488Z,1.40
2023-04-02T01:50:49.767Z,1.20
2023-04-02T01:53:21.531Z,1.10
2023-04-02T01:55:53.183Z,1.00
2023-04-02T01:58:25.438Z,0.95
2023-04-02T02:00:59.941Z,1.10
2023-04-02T02:03:28.254Z,1.20
2023-04-02T02:05:56.683Z,1.05
2023-04-02T02:08:32.702Z,1.27
2023-04-02T02:11:01.521Z,1.20
2023-04-02T02:13:29.707Z,1.30
2023-04-02T02:16:00.991Z,1.20
2023-04-02T02:18:29.998Z,1.40
2023-04-02T02:21:00.731Z,1.05
2023-04-02T02:23:30.994Z,1.10
2023-04-02T02:25:59.970Z,1.30
2023-04-02T02:28:31.755Z,1.38
2023-04-02T02:31:05.560Z,1.30
2023-04-02T02:33:38.069Z,1.48
2023-04-02T02:36:09.752Z,1.38
2023-04-02T02:38:48.555Z,1.50
2023-04-02T02:41:22.634Z,1.35
2023-04-02T02:43:59.212Z,1.05
2023-04-02T02:46:30.077Z,1.50
2023-04-02T02:48:59.865Z,1.27
2023-04-02T02:51:31.945Z,1.38
2023-04-02T02:54:04.256Z,1.20
2023-04-02T02:56:35.527Z,1.50
2023-04-02T02:59:06.400Z,1.38
2023-04-02T03:01:36.894Z,1.27
2023-04-02T03:04:05.424Z,1.80
2023-04-02T03:06:33.933Z,1.83
2023-04-02T03:09:08.091Z,1.70
2023-04-02T03:11:41.627Z,1.70
2023-04-02T03:14:21.397Z,1.50
2023-04-02T03:16:57.689Z,1.33
2023-04-02T03:19:32.514Z,1.80
2023-04-02T03:22:07.617Z,2.47
2023-04-02T03:24:42.630Z,2.80
2023-04-02T03:27:16.218Z,2.67
2023-04-02T03:29:49.609Z,2.67
2023-04-02T03:32:24.532Z,2.40
2023-04-02T03:34:58.916Z,1.95
2023-04-02T03:37:32.054Z,1.08
2023-04-02T03:40:04.582Z,0.70
2023-04-02T03:42:41.333Z,0.80
2023-04-02T03:45:17.507Z,0.40
2023-04-02T03:47:51.063Z,0.30
2023-04-02T03:50:23.941Z,0.30
2023-04-02T03:52:52.382Z,0.20
2023-04-02T03:55:25.256Z,0.20
2023-04-02T03:58:00.846Z,0.22
2023-04-02T04:00:37.327Z,0.20
2023-04-02T04:03:14.010Z,0.30
2023-04-02T04:05:50.105Z,0.20
2023-04-02T04:08:21.488Z,0.30
2023-04-02T04:10:53.862Z,0.22
2023-04-02T04:13:30.058Z,0.30
2023-04-02T04:16:03.580Z,0.20
2023-04-02T04:18:38.399Z,0.30
2023-04-02T04:21:13.044Z,0.30
2023-04-02T04:23:50.732Z,0.20
2023-04-02T04:26:24.679Z,0.30
2023-04-02T04:29:05.467Z,0.30
2023-04-02T04:31:39.920Z,0.28
2023-04-02T04:34:16.164Z,0.30
2023-04-02T04:36:54.253Z,0.20
2023-04-02T04:39:29.550Z,0.10
2023-04-02T04:42:01.054Z,0.30
2023-04-02T04:44:44.586Z,0.30
2023-04-02T04:49:48.771Z,0.40
2023-04-02T04:52:21.926Z,0.20
2023-04-02T04:54:50.468Z,0.30
2023-04-02T04:57:28.600Z,0.30
2023-04-02T05:00:00.898Z,0.30
2023-04-02T05:02:33.491Z,0.40
2023-04-02T05:05:05.034Z,0.40
2023-04-02T05:07:37.502Z,0.22
2023-04-02T05:10:13.309Z,0.20
2023-04-02T05:12:46.710Z,0.20
2023-04-02T05:15:21.394Z,0.20
2023-04-02T05:17:54.608Z,0.30
2023-04-02T05:22:59.709Z,0.25
2023-04-02T05:25:29.526Z,0.30
2023-04-02T05:28:04.962Z,0.20
2023-04-02T05:30:49.353Z,0.30
2023-04-02T05:33:24.616Z,0.30
2023-04-02T05:35:59.902Z,0.30
2023-04-02T05:38:30.257Z,0.40
2023-04-02T05:41:03.512Z,0.50
2023-04-02T05:46:04.907Z,0.40
2023-04-02T05:48:37.477Z,0.40
2023-04-02T05:51:10.780Z,0.40
